createdAt,value
2023-03-12T00:01:16.360Z,1.94
2023-03-12T00:03:46.551Z,2.95
2023-03-12T00:06:16.774Z,2.92
2023-03-12T00:08:43.555Z,2.92
2023-03-12T00:11:13.099Z,2.50
2023-03-12T00:13:40.603Z,2.83
2023-03-12T00:16:17.476Z,2.92
2023-03-12T00:18:44.722Z,2.91
2023-03-12T00:21:11.581Z,2.74
2023-03-12T00:23:38.460Z,2.69
2023-03-12T00:26:07.976Z,2.35
2023-03-12T00:28:35.364Z,2.91
2023-03-12T00:31:02.927Z,2.81
2023-03-12T00:33:29.668Z,2.94
2023-03-12T00:36:02.212Z,2.95
2023-03-12T00:38:29.004Z,2.79
2023-03-12T00:40:55.799Z,2.94
2023-03-12T00:43:27.444Z,2.90
2023-03-12T00:45:54.069Z,2.96
2023-03-12T00:48:20.647Z,2.93
2023-03-12T00:50:47.432Z,2.94
2023-03-12T00:53:14.054Z,2.98
2023-03-12T00:55:40.620Z,2.96
2023-03-12T00:58:09.674Z,2.81
2023-03-12T01:00:38.784Z,2.98
2023-03-12T01:03:05.698Z,2.99
2023-03-12T01:05:37.729Z,2.93
2023-03-12T01:08:05.178Z,2.87
2023-03-12T01:10:31.870Z,2.98
2023-03-12T01:12:58.960Z,2.98
2023-03-12T01:15:28.487Z,2.83
2023-03-12T01:17:55.113Z,2.98
2023-03-12T01:20:23.196Z,2.89
2023-03-12T01:22:54.711Z,2.61
2023-03-12T01:25:21.487Z,2.92
2023-03-12T01:27:48.078Z,3.06
2023-03-12T01:30:17.427Z,3.03
2023-03-12T01:32:44.030Z,3.07
2023-03-12T01:35:12.939Z,3.07
2023-03-12T01:37:39.590Z,3.08
2023-03-12T01:40:06.610Z,2.90
2023-03-12T01:42:33.237Z,2.95
2023-03-12T01:45:02.088Z,3.09
2023-03-12T01:47:32.442Z,3.08
2023-03-12T01:50:00.861Z,3.07
2023-03-12T01:52:33.628Z,2.44
2023-03-12T01:55:06.548Z,2.99
2023-03-12T01:57:33.065Z,3.06
2023-03-12T02:00:13.888Z,2.99
2023-03-12T02:02:44.212Z,2.90
2023-03-12T02:05:20.084Z,3.07
2023-03-12T02:07:47.093Z,3.06
2023-03-12T02:10:14.302Z,3.08
2023-03-12T02:12:41.138Z,3.10
2023-03-12T02:15:08.432Z,2.96
2023-03-12T02:17:36.863Z,3.11
2023-03-12T02:20:18.705Z,3.11
2023-03-12T02:22:55.717Z,3.07
2023-03-12T02:25:38.586Z,3.11
2023-03-12T02:28:08.849Z,3.12
2023-03-12T02:30:36.715Z,3.14
2023-03-12T02:33:07.508Z,3.15
2023-03-12T02:35:36.867Z,3.17
2023-03-12T02:38:04.268Z,2.98
2023-03-12T02:40:45.930Z,3.16
2023-03-12T02:43:25.257Z,3.18
2023-03-12T02:45:51.995Z,3.20
2023-03-12T02:48:26.400Z,3.19
2023-03-12T02:50:52.934Z,3.20
2023-03-12T02:53:19.699Z,3.21
2023-03-12T02:55:46.333Z,3.13
2023-03-12T02:58:12.874Z,3.22
2023-03-12T03:00:39.454Z,3.11
2023-03-12T03:03:06.034Z,3.23
2023-03-12T03:05:32.802Z,3.26
2023-03-12T03:08:01.608Z,3.08
2023-03-12T03:10:30.853Z,2.99
2023-03-12T03:12:59.709Z,3.26
2023-03-12T03:15:28.656Z,3.07
2023-03-12T03:17:55.361Z,3.23
2023-03-12T03:20:22.731Z,3.27
2023-03-12T03:22:49.357Z,2.87
2023-03-12T03:25:16.166Z,3.30
2023-03-12T03:27:42.809Z,3.28
2023-03-12T03:30:12.989Z,3.33
2023-03-12T03:32:39.812Z,3.25
2023-03-12T03:35:06.741Z,3.29
2023-03-12T03:37:33.315Z,3.18
2023-03-12T03:40:00.157Z,3.19
2023-03-12T03:42:27.104Z,3.26
2023-03-12T03:44:53.742Z,3.32
2023-03-12T03:47:20.339Z,3.23
2023-03-12T03:49:49.175Z,3.34
2023-03-12T03:52:15.764Z,3.34
2023-03-12T03:54:47.617Z,3.15
2023-03-12T03:57:16.569Z,3.21
2023-03-12T03:59:43.151Z,3.23
2023-03-12T04:02:09.717Z,3.38
2023-03-12T04:04:36.338Z,3.31
2023-03-12T04:07:03.007Z,3.35
2023-03-12T04:09:30.601Z,3.41
2023-03-12T04:11:59.272Z,3.38
2023-03-12T04:14:26.027Z,3.37
2023-03-12T04:16:52.584Z,3.39
2023-03-12T04:19:19.218Z,3.43
2023-03-12T04:21:46.004Z,3.42
2023-03-12T04:24:16.943Z,3.44
2023-03-12T04:26:43.565Z,3.43
2023-03-12T04:29:10.202Z,3.42
2023-03-12T04:31:39.051Z,3.38
2023-03-12T04:34:05.729Z,3.36
2023-03-12T04:36:32.550Z,3.38
2023-03-12T04:38:59.147Z,3.44
2023-03-12T04:41:30.483Z,3.46
2023-03-12T04:44:00.088Z,3.45
2023-03-12T04:46:27.010Z,3.39
2023-03-12T04:48:53.661Z,3.38
2023-03-12T04:51:20.234Z,3.45
2023-03-12T04:53:46.941Z,3.51
2023-03-12T04:56:15.873Z,3.53
2023-03-12T04:58:45.054Z,3.39
2023-03-12T05:01:24.578Z,3.52
2023-03-12T05:03:51.647Z,3.53
2023-03-12T05:06:18.379Z,3.44
2023-03-12T05:08:48.383Z,3.49
2023-03-12T05:11:15.599Z,3.54
2023-03-12T05:13:42.678Z,3.51
2023-03-12T05:16:10.359Z,3.54
2023-03-12T05:18:37.340Z,3.57
2023-03-12T05:21:11.951Z,3.58
2023-03-12T05:23:39.296Z,3.58
2023-03-12T05:26:08.911Z,3.57
2023-03-12T05:28:35.541Z,3.53
2023-03-12T05:31:10.636Z,3.60
2023-03-12T05:33:37.695Z,3.48
2023-03-12T05:36:04.827Z,3.57
2023-03-12T05:38:31.473Z,3.60
2023-03-12T05:40:59.403Z,3.62
2023-03-12T05:43:29.469Z,3.64
2023-03-12T05:46:05.788Z,3.63
2023-03-12T05:48:32.504Z,3.65
2023-03-12T05:51:01.610Z,3.63
2023-03-12T05:53:28.198Z,3.65
2023-03-12T05:55:57.166Z,3.66
2023-03-12T05:58:26.039Z,3.64
2023-03-12T06:00:52.852Z,3.54
2023-03-12T06:03:19.471Z,3.28
2023-03-12T06:05:48.566Z,3.62
2023-03-12T06:08:15.203Z,3.56
2023-03-12T06:10:41.765Z,3.59
2023-03-12T06:13:11.708Z,3.71
2023-03-12T06:15:40.821Z,3.47
2023-03-12T06:18:07.674Z,3.71
2023-03-12T06:20:34.253Z,3.64
2023-03-12T06:23:00.902Z,3.65
2023-03-12T06:25:30.004Z,3.73
2023-03-12T06:27:56.623Z,3.57
2023-03-12T06:30:23.354Z,3.48
2023-03-12T06:32:50.185Z,3.76
2023-03-12T06:35:17.149Z,3.70
2023-03-12T06:37:43.855Z,3.76
2023-03-12T06:40:13.335Z,3.62
2023-03-12T06:42:39.978Z,3.80
2023-03-12T06:45:07.240Z,3.73
2023-03-12T06:47:33.791Z,3.70
2023-03-12T06:50:00.565Z,3.88
2023-03-12T06:52:27.749Z,3.91
2023-03-12T06:54:57.067Z,3.84
2023-03-12T06:57:23.706Z,3.95
2023-03-12T06:59:50.765Z,4.00
2023-03-12T07:02:18.425Z,4.02
2023-03-12T07:04:47.104Z,3.73
2023-03-12T07:07:14.794Z,4.10
2023-03-12T07:09:43.476Z,4.07
2023-03-12T07:12:12.665Z,4.07
2023-03-12T07:14:44.697Z,4.13
2023-03-12T07:17:14.731Z,4.14
2023-03-12T07:19:41.582Z,3.89
2023-03-12T07:22:09.096Z,4.18
2023-03-12T07:24:35.802Z,4.00
2023-03-12T07:27:04.624Z,4.19
2023-03-12T07:29:32.411Z,4.21
2023-03-12T07:32:00.830Z,4.21
2023-03-12T07:34:31.878Z,3.91
2023-03-12T07:36:59.052Z,4.22
2023-03-12T07:39:29.375Z,4.22
2023-03-12T07:41:58.220Z,4.25
2023-03-12T07:44:29.423Z,4.24
2023-03-12T07:47:20.551Z,4.25
2023-03-12T07:49:55.647Z,4.25
2023-03-12T07:52:26.709Z,4.26
2023-03-12T07:54:57.213Z,3.76
2023-03-12T07:57:25.386Z,4.27
2023-03-12T07:59:52.867Z,4.22
2023-03-12T08:02:21.253Z,4.32
2023-03-12T08:04:49.216Z,4.34
2023-03-12T08:07:17.582Z,4.36
2023-03-12T08:09:54.551Z,4.41
2023-03-12T08:12:25.998Z,4.42
2023-03-12T08:14:54.865Z,4.45
2023-03-12T08:17:22.138Z,4.46
2023-03-12T08:19:48.989Z,4.48
2023-03-12T08:22:16.945Z,4.53
2023-03-12T08:24:44.168Z,4.56
2023-03-12T08:27:12.428Z,4.60
2023-03-12T08:29:40.116Z,4.56
2023-03-12T08:32:25.610Z,4.65
2023-03-12T08:34:54.782Z,4.35
2023-03-12T08:37:23.859Z,4.68
2023-03-12T08:39:51.786Z,4.75
2023-03-12T08:42:19.598Z,4.80
2023-03-12T08:44:51.011Z,4.66
2023-03-12T08:47:18.933Z,4.86
2023-03-12T08:49:56.492Z,4.90
2023-03-12T08:52:27.841Z,4.96
2023-03-12T08:54:54.382Z,4.96
2023-03-12T08:57:23.934Z,5.09
2023-03-12T08:59:50.497Z,5.09
2023-03-12T09:02:17.066Z,5.22
2023-03-12T09:04:48.751Z,5.30
2023-03-12T09:07:18.434Z,5.35
2023-03-12T09:09:45.246Z,5.37
2023-03-12T09:12:14.345Z,5.56
2023-03-12T09:17:30.405Z,5.70
2023-03-12T09:19:57.046Z,5.81
2023-03-12T09:22:23.596Z,5.89
2023-03-12T09:24:50.236Z,5.98
2023-03-12T09:27:16.874Z,5.96
2023-03-12T09:29:58.733Z,6.16
2023-03-12T09:32:28.384Z,6.26
2023-03-12T09:34:55.088Z,6.35
2023-03-12T09:37:24.646Z,6.10
2023-03-12T09:39:52.001Z,6.59
2023-03-12T09:42:25.812Z,6.73
2023-03-12T09:44:57.180Z,6.85
2023-03-12T09:47:26.624Z,6.94
2023-03-12T09:49:58.639Z,6.98
2023-03-12T09:52:36.359Z,7.08
2023-03-12T09:55:16.655Z,7.23
2023-03-12T09:57:44.902Z,7.24
2023-03-12T10:00:16.996Z,7.36
2023-03-12T10:03:02.706Z,7.47
2023-03-12T10:05:57.923Z,7.63
2023-03-12T10:08:52.359Z,7.72
2023-03-12T10:12:05.808Z,7.74
2023-03-12T10:14:48.913Z,7.80
2023-03-12T10:17:30.883Z,7.83
2023-03-12T10:20:27.040Z,7.97
2023-03-12T10:23:48.040Z,8.08
2023-03-12T10:26:23.611Z,8.15
2023-03-12T10:29:00.733Z,8.15
2023-03-12T10:31:30.174Z,8.18
2023-03-12T10:33:59.633Z,8.30
2023-03-12T10:36:36.343Z,8.46
2023-03-12T10:39:03.556Z,8.77
2023-03-12T10:41:34.983Z,8.84
2023-03-12T10:44:07.816Z,8.04
2023-03-12T10:46:37.124Z,8.92
2023-03-12T10:49:21.729Z,8.92
2023-03-12T10:52:20.175Z,9.00
2023-03-12T10:54:49.213Z,8.95
2023-03-12T10:57:16.723Z,8.93
2023-03-12T10:59:47.485Z,8.94
2023-03-12T11:02:22.924Z,9.02
2023-03-12T11:04:55.101Z,9.06
2023-03-12T11:07:23.596Z,9.11
2023-03-12T11:10:12.621Z,9.38
2023-03-12T11:12:50.838Z,9.52
2023-03-12T11:15:24.432Z,9.35
2023-03-12T11:18:11.278Z,9.45
2023-03-12T11:20:37.871Z,9.50
2023-03-12T11:23:29.594Z,9.74
2023-03-12T11:25:58.397Z,9.85
2023-03-12T11:28:35.976Z,9.96
2023-03-12T11:31:05.281Z,10.01
2023-03-12T11:33:31.955Z,10.02
2023-03-12T11:36:09.862Z,10.11
2023-03-12T11:38:43.628Z,10.15
2023-03-12T11:41:25.118Z,10.14
2023-03-12T11:44:13.554Z,10.13
2023-03-12T11:46:57.894Z,10.14
2023-03-12T11:49:42.821Z,10.01
2023-03-12T11:52:39.876Z,9.96
2023-03-12T11:55:16.606Z,10.25
2023-03-12T11:58:02.048Z,10.46
2023-03-12T12:00:41.993Z,10.56
2023-03-12T12:03:40.406Z,10.50
2023-03-12T12:06:22.524Z,10.64
2023-03-12T12:09:26.562Z,10.72
2023-03-12T12:12:07.542Z,10.85
2023-03-12T12:14:48.664Z,11.11
2023-03-12T12:17:30.538Z,11.33
2023-03-12T12:20:17.291Z,11.71
2023-03-12T12:23:05.376Z,11.74
2023-03-12T12:25:55.072Z,11.96
2023-03-12T12:28:30.325Z,11.95
2023-03-12T12:31:09.350Z,11.90
2023-03-12T12:33:55.732Z,11.81
2023-03-12T12:36:28.172Z,11.62
2023-03-12T12:39:07.050Z,11.48
2023-03-12T12:41:38.484Z,11.44
2023-03-12T12:44:11.509Z,11.44
2023-03-12T12:46:45.221Z,11.40
2023-03-12T12:49:59.732Z,11.34
2023-03-12T12:52:27.300Z,11.37
2023-03-12T12:55:09.832Z,11.42
2023-03-12T12:57:42.561Z,11.47
2023-03-12T13:00:27.308Z,11.56
2023-03-12T13:02:56.468Z,11.57
2023-03-12T13:05:27.723Z,11.62
2023-03-12T13:07:54.635Z,11.67
2023-03-12T13:10:33.475Z,11.76
2023-03-12T13:13:18.117Z,11.89
2023-03-12T13:15:45.129Z,12.01
2023-03-12T13:18:40.522Z,12.13
2023-03-12T13:21:19.171Z,12.17
2023-03-12T13:24:24.134Z,12.28
2023-03-12T13:27:16.377Z,12.28
2023-03-12T13:29:45.734Z,12.28
2023-03-12T13:32:40.659Z,12.46
2023-03-12T13:35:30.119Z,12.46
2023-03-12T13:38:03.012Z,12.46
2023-03-12T13:40:29.751Z,12.13
2023-03-12T13:43:30.932Z,12.39
2023-03-12T13:46:18.261Z,12.46
2023-03-12T13:48:47.915Z,12.53
2023-03-12T13:51:21.574Z,12.57
2023-03-12T13:53:56.024Z,12.64
2023-03-12T13:56:29.089Z,12.65
2023-03-12T13:59:06.241Z,12.71
2023-03-12T14:01:48.325Z,12.74
2023-03-12T14:04:23.208Z,12.65
2023-03-12T14:07:13.153Z,12.47
2023-03-12T14:09:48.419Z,12.39
2023-03-12T14:12:38.841Z,12.32
2023-03-12T14:15:33.523Z,12.22
2023-03-12T14:18:09.248Z,12.11
2023-03-12T14:20:38.922Z,12.02
2023-03-12T14:23:11.780Z,11.73
2023-03-12T14:25:42.984Z,11.87
2023-03-12T14:28:40.731Z,11.88
2023-03-12T14:31:15.521Z,11.96
2023-03-12T14:34:11.615Z,12.02
2023-03-12T14:36:56.437Z,12.01
2023-03-12T14:39:41.638Z,12.00
2023-03-12T14:42:09.521Z,12.01
2023-03-12T14:44:39.506Z,12.05
2023-03-12T14:47:18.325Z,12.09
2023-03-12T14:49:47.025Z,12.07
2023-03-12T14:52:23.198Z,12.12
2023-03-12T14:55:12.228Z,12.11
2023-03-12T14:57:41.037Z,12.09
2023-03-12T15:00:16.380Z,12.01
2023-03-12T15:02:45.828Z,12.03
2023-03-12T15:05:22.140Z,12.13
2023-03-12T15:07:52.033Z,12.23
2023-03-12T15:10:28.072Z,12.20
2023-03-12T15:12:58.094Z,12.30
2023-03-12T15:15:42.782Z,12.32
2023-03-12T15:18:20.277Z,12.25
2023-03-12T15:20:51.016Z,12.34
2023-03-12T15:23:19.523Z,12.34
2023-03-12T15:25:47.386Z,12.31
2023-03-12T15:28:14.130Z,12.25
2023-03-12T15:30:42.633Z,12.28
2023-03-12T15:33:22.667Z,12.11
2023-03-12T15:36:20.844Z,11.98
2023-03-12T15:38:50.633Z,11.93
2023-03-12T15:41:27.088Z,12.14
2023-03-12T15:43:58.368Z,12.00
2023-03-12T15:46:26.537Z,12.12
2023-03-12T15:48:56.473Z,12.02
2023-03-12T15:51:27.394Z,12.06
2023-03-12T15:54:20.386Z,12.03
2023-03-12T15:56:46.989Z,11.90
2023-03-12T15:59:16.325Z,11.94
2023-03-12T16:01:54.533Z,11.91
2023-03-12T16:04:23.103Z,11.89
2023-03-12T16:06:51.840Z,11.87
2023-03-12T16:09:22.611Z,11.86
2023-03-12T16:11:49.501Z,11.80
2023-03-12T16:14:22.980Z,11.83
2023-03-12T16:16:51.238Z,11.84
2023-03-12T16:19:20.954Z,11.65
2023-03-12T16:21:48.496Z,11.65
2023-03-12T16:24:17.317Z,11.81
2023-03-12T16:26:51.032Z,11.78
2023-03-12T16:29:19.435Z,11.76
2023-03-12T16:31:56.001Z,11.73
2023-03-12T16:34:24.417Z,11.69
2023-03-12T16:36:53.576Z,11.68
2023-03-12T16:39:20.661Z,11.65
2023-03-12T16:41:49.625Z,11.64
2023-03-12T16:44:21.418Z,11.60
2023-03-12T16:46:48.150Z,11.51
2023-03-12T16:49:16.758Z,11.57
2023-03-12T16:51:43.473Z,11.56
2023-03-12T16:54:12.662Z,11.54
2023-03-12T16:56:45.001Z,11.54
2023-03-12T16:59:24.532Z,11.52
2023-03-12T17:01:57.660Z,11.49
2023-03-12T17:04:24.339Z,11.48
2023-03-12T17:06:51.053Z,11.29
2023-03-12T17:09:22.330Z,11.43
2023-03-12T17:11:51.784Z,11.26
2023-03-12T17:14:22.345Z,11.32
2023-03-12T17:16:51.568Z,11.36
2023-03-12T17:19:20.433Z,11.36
2023-03-12T17:21:50.985Z,11.34
2023-03-12T17:24:19.834Z,11.33
2023-03-12T17:26:46.541Z,11.31
2023-03-12T17:29:13.123Z,11.25
2023-03-12T17:31:39.693Z,10.22
2023-03-12T17:34:08.904Z,11.15
2023-03-12T17:36:37.674Z,11.25
2023-03-12T17:39:04.796Z,11.25
2023-03-12T17:41:36.184Z,11.02
2023-03-12T17:44:03.852Z,11.19
2023-03-12T17:46:31.233Z,11.21
2023-03-12T17:48:58.099Z,11.22
2023-03-12T17:51:25.137Z,11.04
2023-03-12T17:53:53.921Z,11.16
2023-03-12T17:56:20.855Z,11.20
2023-03-12T17:58:47.659Z,11.07
2023-03-12T18:01:15.691Z,11.14
2023-03-12T18:03:43.943Z,11.10
2023-03-12T18:06:13.677Z,11.06
2023-03-12T18:08:40.309Z,11.12
2023-03-12T18:11:07.028Z,11.13
2023-03-12T18:13:33.645Z,11.10
2023-03-12T18:16:00.476Z,11.12
2023-03-12T18:18:27.955Z,11.10
2023-03-12T18:20:54.795Z,10.53
2023-03-12T18:23:25.264Z,11.13
2023-03-12T18:25:52.270Z,11.05
2023-03-12T18:28:22.429Z,11.13
2023-03-12T18:30:49.090Z,11.11
2023-03-12T18:33:16.382Z,11.05
2023-03-12T18:35:44.174Z,11.09
2023-03-12T18:38:10.761Z,11.09
2023-03-12T18:40:39.881Z,10.59
2023-03-12T18:43:09.030Z,11.08
2023-03-12T18:45:35.682Z,11.07
2023-03-12T18:48:02.283Z,11.01
2023-03-12T18:50:31.043Z,10.43
2023-03-12T18:52:57.704Z,11.05
2023-03-12T18:55:24.335Z,11.04
2023-03-12T18:57:53.177Z,10.90
2023-03-12T19:00:20.074Z,11.03
2023-03-12T19:02:48.168Z,10.87
2023-03-12T19:05:16.064Z,11.01
2023-03-12T19:07:42.882Z,10.87
2023-03-12T19:10:12.717Z,11.01
2023-03-12T19:12:51.520Z,10.94
2023-03-12T19:15:20.098Z,11.01
2023-03-12T19:17:46.715Z,10.92
2023-03-12T19:20:14.224Z,10.81
2023-03-12T19:22:40.878Z,10.60
2023-03-12T19:25:07.898Z,10.79
2023-03-12T19:27:36.830Z,10.94
2023-03-12T19:30:04.146Z,10.90
2023-03-12T19:32:42.349Z,10.95
2023-03-12T19:35:11.895Z,10.80
2023-03-12T19:37:41.456Z,10.95
2023-03-12T19:40:11.614Z,10.84
2023-03-12T19:42:38.250Z,10.84
2023-03-12T19:45:05.233Z,10.84
2023-03-12T19:47:34.341Z,10.72
2023-03-12T19:50:01.257Z,10.48
2023-03-12T19:52:28.059Z,10.66
2023-03-12T19:55:04.400Z,10.45
2023-03-12T19:57:32.621Z,10.38
2023-03-12T19:59:59.322Z,10.39
2023-03-12T20:02:26.550Z,10.46
2023-03-12T20:04:55.589Z,10.37
2023-03-12T20:07:22.317Z,10.34
2023-03-12T20:09:49.065Z,10.31
2023-03-12T20:12:15.733Z,10.26
2023-03-12T20:14:43.004Z,9.72
2023-03-12T20:17:09.995Z,10.17
2023-03-12T20:19:39.065Z,10.08
2023-03-12T20:22:06.797Z,10.10
2023-03-12T20:24:38.147Z,10.07
2023-03-12T20:27:07.439Z,9.98
2023-03-12T20:29:34.007Z,9.98
2023-03-12T20:32:00.720Z,10.05
2023-03-12T20:34:27.373Z,10.04
2023-03-12T20:36:53.959Z,10.05
2023-03-12T20:39:20.798Z,10.04
2023-03-12T20:41:51.359Z,9.94
2023-03-12T20:44:18.475Z,9.73
2023-03-12T20:46:46.185Z,9.83
2023-03-12T20:49:13.007Z,9.88
2023-03-12T20:51:40.709Z,9.78
2023-03-12T20:54:09.608Z,9.78
2023-03-12T20:56:36.240Z,9.72
2023-03-12T20:59:05.226Z,9.66
2023-03-12T21:01:32.155Z,9.62
2023-03-12T21:04:01.011Z,9.69
2023-03-12T21:06:30.081Z,8.11
2023-03-12T21:08:57.289Z,9.69
2023-03-12T21:11:26.729Z,9.87
2023-03-12T21:13:54.193Z,9.85
2023-03-12T21:16:20.976Z,9.15
2023-03-12T21:18:47.687Z,9.79
2023-03-12T21:21:15.059Z,9.92
2023-03-12T21:23:41.744Z,9.91
2023-03-12T21:26:09.554Z,9.85
2023-03-12T21:28:36.883Z,10.03
2023-03-12T21:31:08.772Z,9.95
2023-03-12T21:33:37.919Z,10.03
2023-03-12T21:36:09.762Z,10.04
2023-03-12T21:38:37.559Z,9.80
2023-03-12T21:41:09.675Z,9.91
2023-03-12T21:43:39.227Z,9.88
2023-03-12T21:46:14.859Z,9.52
2023-03-12T21:48:44.967Z,9.76
2023-03-12T21:51:14.613Z,9.90
2023-03-12T21:53:42.050Z,9.95
2023-03-12T21:56:09.689Z,9.78
2023-03-12T21:58:36.940Z,9.91
2023-03-12T22:01:03.624Z,9.97
2023-03-12T22:03:30.489Z,9.82
2023-03-12T22:05:57.132Z,9.88
2023-03-12T22:08:23.738Z,10.03
2023-03-12T22:10:50.442Z,10.05
2023-03-12T22:13:17.304Z,9.97
2023-03-12T22:15:59.642Z,10.08
2023-03-12T22:18:27.864Z,10.11
2023-03-12T22:20:56.926Z,10.09
2023-03-12T22:23:24.728Z,10.10
2023-03-12T22:25:52.040Z,10.02
2023-03-12T22:28:19.580Z,10.18
2023-03-12T22:30:46.633Z,10.19
2023-03-12T22:33:13.935Z,10.15
2023-03-12T22:35:47.441Z,10.22
2023-03-12T22:38:14.518Z,10.13
2023-03-12T22:40:41.700Z,10.23
2023-03-12T22:43:10.524Z,10.20
2023-03-12T22:45:39.660Z,10.03
2023-03-12T22:48:09.019Z,10.24
2023-03-12T22:50:35.665Z,10.04
2023-03-12T22:53:02.219Z,10.10
2023-03-12T22:55:28.787Z,10.25
2023-03-12T22:57:55.330Z,10.10
2023-03-12T23:00:23.150Z,10.09
2023-03-12T23:02:52.724Z,10.24
2023-03-12T23:05:19.404Z,10.17
2023-03-12T23:07:46.178Z,10.04
2023-03-12T23:10:12.863Z,10.18
2023-03-12T23:12:41.684Z,10.20
2023-03-12T23:15:08.917Z,10.14
2023-03-12T23:17:35.772Z,10.18
2023-03-12T23:20:05.564Z,10.06
2023-03-12T23:22:33.507Z,10.14
2023-03-12T23:25:02.682Z,10.15
2023-03-12T23:27:29.323Z,10.04
2023-03-12T23:29:55.922Z,9.97
2023-03-12T23:32:25.000Z,10.15
2023-03-12T23:34:52.001Z,10.15
2023-03-12T23:37:20.932Z,10.02
2023-03-12T23:39:54.544Z,10.16
2023-03-12T23:42:21.903Z,10.00
2023-03-12T23:44:50.792Z,10.16
2023-03-12T23:47:17.386Z,10.18
2023-03-12T23:49:44.119Z,10.13
2023-03-12T23:52:10.782Z,10.16
2023-03-12T23:54:39.977Z,10.15
2023-03-12T23:57:06.596Z,9.99
2023-03-12T23:59:33.198Z,10.16
